Seaton, Texas
Current Conditions -  °F | °C
As of 11:35 PM on Saturday 20 Dec 2014 (Local Time) from KTPL Reporting Station
Overcast Overcast  
Wind Chill:   Ceiling: 2300
Heat Index:   Visibility: 5mi
Dew Point:   Wind: 0mph
Humidity: 82%   Direction: NA
Pressure: 30.17"   Gusts: NA
Location:  31.0795°N, 97.3287°W
Report Text: KTPL 210535Z AUTO 00000KT 5SM OVC023 09/06 A3017 RMK AO1
Loading
Personal Weather Stations






























Interactive Weather Map New forecast layout! Learn more

10-Day Weather Forecast

Advertisements
Track Severe Weather on mobile